Saturday, June 25, 2016
14:06 UTC
  |  Log In   |  Register Free
Airport Search:

Henry Post Aaf (Fort Sill) Airport
(KFSI)

Henry Post Aaf (Fort Sill) Airport Diagram
No Airport Diagram Available

FAA data valid effective May 26 2016 - Jul 21 2016 (unless otherwise noted).

 
 
 
 
 
 
 
 
 
 
 
 
 
 
Current Aviation Weather for KFSI

Weather Summary


The most recent METAR observation for FSI was updated at: 12:58 UTC
METAR for KFSI is not available. Closest METAR is for KLAW
KFSI  (most recent observation was updatred at 25:13 UTC)
251358Z AUTO 21011KT 10SM CLR 27/22 A3001 RMK AO2 SLPNO T02660222

KLAW  (5.0 nm NE)   (most recent observation was updated at 25:13 UTC)
251353Z AUTO 19011KT 10SM CLR 27/22 A3003 RMK AO2 SLP154 T02720217 TSNO

KDUC  (24.4 nm NW)   (most recent observation was updated at 25:13 UTC)
251355Z AUTO 19010KT CLR 26/22 A3004 RMK AO2 PWINO TSNO

TAF for KFSI is not available.
KFSI
AMD 250233Z 2502/2603 17012G18KT 9999 FEW060 SCT100 QNH2992INS BECMG 2502/2503 15009KT 9999 FEW040 QNH2996INS BECMG 2514/2515 18012G21KT 9999 FEW040 QNH2991INS TX36/2521Z TN22/2513Z AMD 250233 LAST NO AMDS AFT 2503 NEXT 2713

KLAW  (5.0 nm NE)   (most recent observation was updatred at 25:11 UTC)
251120Z 2512/2612 15006KT P6SM SKC FM251600 18012G19KT P6SM SCT050 SCT250 FM260100 15010KT P6SM BKN250
GlobalAir.com is loading additional information.
 Current Weather at FSI
76.0 F° (24.3 C°)

South winds at 8.1 mph
Pressure:
30.00 in
Humidity:
84%
Wind:
South at 8.1 mph
Dew Point:
70.7 F° (21.5 C°)
Visibility:
10.00 mi
FSI NOAA Radar




Find All Airport Services Find A Hotel Find A Rental Car Find A Golf Course Find A Restaurant $100 Hamburger



Airport Weather Forecast for KFSI

Translated METAR for KFSI (1358 UTC)
METAR:
KFSI 251358Z AUTO 21011KT 10SM CLR 27/22 A3001 RMK AO2 SLPNO T02660222
Conditions at:
KFSI (Henry Post Aaf (Fort Sill), OK) observed 1358 UTC 25 June 2016
Temperature:
27°C (80.6°F)
Dewpoint:
22°C (71.6°F) [RH = 74.1]
Pressure:
30.01 inches Hg (1016.3 mb)
Winds:
from the SSW (210 degrees) at 12.7 mph (11 knots: 5.7 m/s)
Visibility:
10 mile(s)
Ceiling:
at least 12,000 feet AGL
Clouds:
Clear below 12,000 feet AGL
Remarks:
site is un-manned
site is automated and HAS a precipitation sensor

Translated TAF for KFSI (Henry Post Aaf (Fort Sill), OK) (0233 UTC)
TAF text:
KFSI 250233Z 2502/2603 17012G18KT 9999 FEW060 SCT100 QNH2992INS BECMG 2502/2503 15009KT 9999 FEW040 QNH2996INS BECMG 2514/2515 18012G21KT 9999 FEW040 QNH2991INS TX36/2521Z TN22/2513Z 250233 LAST NO AMDS AFT 2503 NEXT 2713
Forecast period:
Saturday Jun 25 2016 02:00 UTC - Sunday Jun 26 2016 03:00 UTC
Forecast type:
FROM: standard forecast or significant change
Winds:
from the S (180 degrees) at 13.8 mph (12 knots: 6.2 m/s)
gusting to 24.2 mph (21 knots: 10.8 m/s)
Visibility:
Ceiling:
at least 12,000 feet AGL
at least 12,000 feet AGL
at least 12,000 feet AGL
Clouds:
Few Clouds at 6,000 feet AGL
Scattered Clouds at 10,000 feet AGL
Few Clouds at 4,000 feet AGL
Few Clouds at 4,000 feet AGL
Weather:
no significant weather observed at this time
FBO's on the Field
FBO Company Facility Photos Services Transportation Aviation Fuel Prices: Prices include tax
Catering Weather Repair Courtesy Rental Type 100LL JetA JetA+ MOGAS 8087
 
Add another FBO Facility Photos Catering Weather Repair Courtesy Rental Type 100LL JetA JetA+ MOGAS 8087
Services Transportation Aviation Fuel Prices: Prices include tax
There are no FBO's currently reporting fuel at FSI. List your FBO now


model-print
model-print
model-print
model-print